Time;durP1;ratioP1;P1;durP2;ratioP2;P2;SDS_P1;SDS_P2;PMS_P1;PMS_P2;Temp;Humidity;BMP_temperature;BMP_pressure;BME280_temperature;BME280_humidity;BME280_pressure;Samples;Min_cycle;Max_cycle;Signal;HPM_P1;HPM_P2
2022/08/30 00:01:24;;;;;;;;;;;;;;;22.71;70.76;100276.06;5016520;28;20030;-82
2022/08/30 00:03:50;;;;;;;;;;;;;;;22.73;70.81;100273.59;5016875;28;20047;-82
2022/08/30 00:06:17;;;;;;;;;;;;;;;22.73;70.58;100274.38;5034817;28;19948;-82
2022/08/30 00:08:43;;;;;;;;;;;;;;;22.72;70.32;100277.66;5016490;28;19913;-82
2022/08/30 00:11:11;;;;;;;;;;;;;;;22.73;70.08;100273.59;5017060;28;19924;-82
2022/08/30 00:13:37;;;;;;;;;;;;;;;22.64;70.80;100270.59;5017331;28;19913;-82
2022/08/30 00:16:05;;;;;;;;;;;;;;;22.63;70.51;100271.81;5033336;28;20363;-82
2022/08/30 00:18:31;;;;;;;;;;;;;;;22.63;70.40;100274.66;5016943;28;19956;-82
2022/08/30 00:20:56;;;;;;;;;;;;;;;22.69;69.95;100275.72;5016927;28;20397;-82
2022/08/30 00:23:21;;;;;;;;;;;;;;;22.61;70.33;100274.31;5017141;28;20390;-82
2022/08/30 00:25:47;;;;;;;;;;;;;;;22.54;71.06;100280.16;5016577;28;19920;-82
2022/08/30 00:28:13;;;;;;;;;;;;;;;22.43;71.47;100284.06;5016546;28;19920;-82
2022/08/30 00:30:39;;;;;;;;;;;;;;;22.33;72.12;100282.28;5033954;28;19963;-81
2022/08/30 00:33:04;;;;;;;;;;;;;;;22.28;72.85;100282.81;5017015;28;19940;-82
2022/08/30 00:35:30;;;;;;;;;;;;;;;22.20;72.87;100281.34;5016428;28;20356;-82
2022/08/30 00:37:55;;;;;;;;;;;;;;;22.17;73.55;100282.25;5016450;28;19920;-82
2022/08/30 00:40:21;;;;;;;;;;;;;;;22.06;73.90;100281.66;5016961;28;19913;-82
2022/08/30 00:42:46;;;;;;;;;;;;;;;22.03;73.70;100279.69;5016602;28;20442;-83
2022/08/30 00:45:17;;;;;;;;;;;;;;;22.02;73.34;100275.28;5016621;28;20302;-81
2022/08/30 00:47:43;;;;;;;;;;;;;;;22.01;73.38;100277.31;5016930;28;19913;-82
2022/08/30 00:50:09;;;;;;;;;;;;;;;22.00;73.69;100274.91;5016303;28;20374;-82
2022/08/30 00:52:37;;;;;;;;;;;;;;;22.04;73.92;100278.47;5016346;28;19920;-83
2022/08/30 00:55:03;;;;;;;;;;;;;;;22.06;74.04;100273.16;5016781;28;20371;-82
2022/08/30 00:57:29;;;;;;;;;;;;;;;22.11;74.02;100281.19;5033953;28;19976;-82
2022/08/30 00:59:54;;;;;;;;;;;;;;;22.09;73.78;100275.91;5034055;28;19921;-81
2022/08/30 01:02:22;;;;;;;;;;;;;;;22.12;74.12;100268.59;5016745;28;20334;-82
2022/08/30 01:04:47;;;;;;;;;;;;;;;22.09;74.13;100275.09;5017089;28;20248;-82
2022/08/30 01:07:13;;;;;;;;;;;;;;;22.07;73.65;100274.75;5016119;28;19913;-82
2022/08/30 01:09:38;;;;;;;;;;;;;;;22.04;74.07;100272.78;5034192;28;19917;-82
2022/08/30 01:12:04;;;;;;;;;;;;;;;21.97;74.22;100277.38;5016035;28;19956;-81
2022/08/30 01:14:32;;;;;;;;;;;;;;;22.01;74.36;100273.69;5016365;28;19960;-82
2022/08/30 01:16:57;;;;;;;;;;;;;;;21.97;74.38;100279.44;5033818;28;19917;-82
2022/08/30 01:19:39;;;;;;;;;;;;;;;21.99;74.82;100276.94;5033768;28;19922;-82
2022/08/30 01:22:25;;;;;;;;;;;;;;;22.02;74.49;100278.13;5016481;28;19913;-81
2022/08/30 01:24:52;;;;;;;;;;;;;;;22.02;74.53;100286.63;4995948;28;19913;-82
2022/08/30 01:27:17;;;;;;;;;;;;;;;22.02;74.56;100286.63;5019140;28;20225;-82
2022/08/30 01:29:43;;;;;;;;;;;;;;;22.06;74.40;100285.31;5038057;28;19920;-82
2022/08/30 01:32:19;;;;;;;;;;;;;;;22.00;75.00;100289.06;5037738;28;20359;-82
2022/08/30 01:34:48;;;;;;;;;;;;;;;21.98;74.86;100290.31;5019834;28;19913;-82
2022/08/30 01:37:18;;;;;;;;;;;;;;;22.01;74.73;100291.47;5020387;28;19918;-82
2022/08/30 01:39:44;;;;;;;;;;;;;;;22.03;74.76;100291.03;5019750;28;20314;-82
2022/08/30 01:42:10;;;;;;;;;;;;;;;21.89;75.83;100290.13;5037183;28;19920;-82
2022/08/30 01:44:35;;;;;;;;;;;;;;;21.82;76.26;100295.94;5019435;28;19948;-82
2022/08/30 01:47:00;;;;;;;;;;;;;;;21.80;76.92;100295.56;5019366;28;19967;-82
2022/08/30 01:49:26;;;;;;;;;;;;;;;21.85;76.94;100295.06;5035825;28;19920;-82
2022/08/30 01:51:51;;;;;;;;;;;;;;;21.88;76.94;100297.00;5019336;28;20003;-82
2022/08/30 01:54:17;;;;;;;;;;;;;;;21.92;76.88;100286.41;5019541;28;19917;-82
2022/08/30 01:56:42;;;;;;;;;;;;;;;21.89;77.17;100287.28;5019155;28;19913;-82
2022/08/30 01:59:07;;;;;;;;;;;;;;;21.82;77.73;100284.59;5019177;28;19956;-82
2022/08/30 02:01:35;;;;;;;;;;;;;;;21.83;77.40;100286.19;5018727;28;19924;-82
2022/08/30 02:04:01;;;;;;;;;;;;;;;21.76;77.96;100289.19;5018778;28;19913;-81
2022/08/30 02:06:26;;;;;;;;;;;;;;;21.74;77.75;100293.69;5019554;28;20046;-82
2022/08/30 02:08:52;;;;;;;;;;;;;;;21.75;78.15;100295.28;5018927;28;20409;-82
2022/08/30 02:11:17;;;;;;;;;;;;;;;21.75;77.90;100292.47;5019152;28;19913;-81
2022/08/30 02:13:43;;;;;;;;;;;;;;;21.75;77.54;100286.81;5036648;28;19920;-82
2022/08/30 02:16:10;;;;;;;;;;;;;;;21.74;78.03;100280.34;5018783;28;19917;-80
2022/08/30 02:18:37;;;;;;;;;;;;;;;21.75;77.82;100278.31;5018765;28;19917;-82
2022/08/30 02:21:02;;;;;;;;;;;;;;;21.74;78.03;100277.50;5019285;28;20252;-82
2022/08/30 02:23:28;;;;;;;;;;;;;;;21.82;77.83;100280.97;5018966;28;19940;-81
2022/08/30 02:25:53;;;;;;;;;;;;;;;21.86;77.62;100274.00;5019343;28;19913;-82
2022/08/30 02:28:19;;;;;;;;;;;;;;;21.79;77.46;100276.19;5018539;28;20275;-80
2022/08/30 02:30:45;;;;;;;;;;;;;;;21.78;77.75;100269.72;5018508;28;19920;-82
2022/08/30 02:33:10;;;;;;;;;;;;;;;21.74;77.76;100271.84;5018408;28;19993;-82
2022/08/30 02:35:36;;;;;;;;;;;;;;;21.73;78.03;100264.56;5019044;28;20012;-82
2022/08/30 02:38:01;;;;;;;;;;;;;;;21.75;78.41;100261.31;5017523;28;19920;-81
2022/08/30 02:40:26;;;;;;;;;;;;;;;21.79;77.49;100257.16;5036114;28;19920;-82
2022/08/30 02:42:52;;;;;;;;;;;;;;;21.75;77.83;100262.09;5018500;28;19920;-82
2022/08/30 02:45:17;;;;;;;;;;;;;;;21.70;78.18;100260.59;5018255;28;19917;-82
2022/08/30 02:47:42;;;;;;;;;;;;;;;21.72;78.67;100260.13;5018460;28;19999;-82
2022/08/30 02:50:08;;;;;;;;;;;;;;;21.77;79.02;100256.00;5035618;28;19920;-81
2022/08/30 02:52:34;;;;;;;;;;;;;;;21.79;78.13;100257.16;5018469;28;20275;-82
2022/08/30 02:54:59;;;;;;;;;;;;;;;21.75;77.53;100266.97;5018051;28;19917;-81
2022/08/30 02:57:25;;;;;;;;;;;;;;;21.73;77.67;100258.91;5035539;28;19917;-82
2022/08/30 02:59:50;;;;;;;;;;;;;;;21.62;77.48;100253.47;5017824;28;19913;-82
2022/08/30 03:02:16;;;;;;;;;;;;;;;21.63;78.19;100254.28;5018180;28;19953;-82
2022/08/30 03:04:44;;;;;;;;;;;;;;;21.58;78.96;100264.09;5017923;28;19948;-82
2022/08/30 03:07:11;;;;;;;;;;;;;;;21.56;79.29;100260.09;5034342;28;19912;-82
2022/08/30 03:09:36;;;;;;;;;;;;;;;21.55;79.12;100264.16;5017804;28;19948;-82
2022/08/30 03:12:03;;;;;;;;;;;;;;;21.56;79.22;100260.88;5018108;28;19917;-82
2022/08/30 03:14:30;;;;;;;;;;;;;;;21.56;78.23;100255.22;5001559;28;19921;-82
2022/08/30 03:16:55;;;;;;;;;;;;;;;21.69;77.75;100258.19;5017412;28;19913;-82
2022/08/30 03:19:21;;;;;;;;;;;;;;;21.63;77.12;100259.94;5017694;28;19914;-82
2022/08/30 03:21:46;;;;;;;;;;;;;;;21.54;78.21;100265.38;5017539;28;19920;-82
2022/08/30 03:24:12;;;;;;;;;;;;;;;21.49;78.51;100258.19;5017540;28;19920;-82
2022/08/30 03:26:37;;;;;;;;;;;;;;;21.43;78.59;100257.91;5017448;28;19917;-82
2022/08/30 03:29:03;;;;;;;;;;;;;;;21.34;78.66;100263.34;5017998;28;19913;-82
2022/08/30 03:31:28;;;;;;;;;;;;;;;21.34;78.78;100271.03;5017712;28;20411;-82
2022/08/30 03:33:54;;;;;;;;;;;;;;;21.36;79.05;100262.91;5017945;28;20291;-82
2022/08/30 03:36:19;;;;;;;;;;;;;;;21.35;78.58;100267.78;5035091;28;19917;-82
2022/08/30 03:38:45;;;;;;;;;;;;;;;21.32;77.54;100268.66;5035302;28;20007;-82
2022/08/30 03:41:10;;;;;;;;;;;;;;;21.37;77.53;100265.31;5034629;28;19996;-82
2022/08/30 03:43:35;;;;;;;;;;;;;;;21.37;78.60;100258.88;5018093;28;19938;-82
2022/08/30 03:46:01;;;;;;;;;;;;;;;21.38;78.94;100261.25;5017170;28;19964;-82
2022/08/30 03:48:27;;;;;;;;;;;;;;;21.45;78.58;100261.09;5017713;28;19913;-82
2022/08/30 03:50:53;;;;;;;;;;;;;;;21.51;78.41;100260.59;5017012;28;20351;-82
2022/08/30 03:53:18;;;;;;;;;;;;;;;21.55;78.23;100258.50;5034846;28;20019;-82
2022/08/30 03:55:43;;;;;;;;;;;;;;;21.59;78.88;100264.88;5016997;28;19914;-82
2022/08/30 03:58:09;;;;;;;;;;;;;;;21.59;78.86;100267.72;5035286;28;19918;-82
2022/08/30 04:00:34;;;;;;;;;;;;;;;21.68;78.36;100273.59;5016779;28;19917;-82
2022/08/30 04:02:59;;;;;;;;;;;;;;;21.50;78.83;100271.13;5016855;28;19923;-82
2022/08/30 04:05:26;;;;;;;;;;;;;;;21.47;79.52;100274.03;5016864;28;19913;-82
2022/08/30 04:07:51;;;;;;;;;;;;;;;21.29;79.59;100268.69;5034555;28;20386;-82
2022/08/30 04:10:19;;;;;;;;;;;;;;;21.26;80.57;100270.38;5016746;28;19914;-82
2022/08/30 04:12:45;;;;;;;;;;;;;;;21.22;81.62;100269.63;5017232;28;20251;-82
2022/08/30 04:15:10;;;;;;;;;;;;;;;21.24;80.79;100269.19;5033153;28;19919;-82
2022/08/30 04:17:36;;;;;;;;;;;;;;;21.27;80.42;100271.97;5016593;28;19920;-82
2022/08/30 04:20:01;;;;;;;;;;;;;;;21.11;80.61;100286.00;5034334;28;19912;-82
2022/08/30 04:22:26;;;;;;;;;;;;;;;21.13;80.85;100277.88;5016455;28;20260;-82
2022/08/30 04:24:52;;;;;;;;;;;;;;;21.19;80.73;100274.09;5016534;28;19999;-82
2022/08/30 04:27:19;;;;;;;;;;;;;;;21.19;81.62;100270.47;5034861;28;19913;-82
2022/08/30 04:29:45;;;;;;;;;;;;;;;21.24;81.77;100277.69;5017134;28;19913;-82
2022/08/30 04:32:10;;;;;;;;;;;;;;;21.14;82.32;100279.47;5034221;28;19920;-82
2022/08/30 04:34:35;;;;;;;;;;;;;;;21.12;82.96;100276.28;5016672;28;20252;-82
2022/08/30 04:37:01;;;;;;;;;;;;;;;21.15;83.45;100281.88;5016740;28;19968;-82
2022/08/30 04:39:26;;;;;;;;;;;;;;;21.17;82.89;100285.06;5016690;28;19913;-82
2022/08/30 04:41:51;;;;;;;;;;;;;;;21.18;82.81;100268.88;5016920;28;20473;-82
2022/08/30 04:44:17;;;;;;;;;;;;;;;21.19;82.28;100282.59;5016640;28;19920;-82
2022/08/30 04:46:42;;;;;;;;;;;;;;;21.26;82.40;100275.22;5016518;28;19945;-82
2022/08/30 04:49:08;;;;;;;;;;;;;;;21.36;82.27;100275.06;5016602;28;19985;-82
2022/08/30 04:51:33;;;;;;;;;;;;;;;21.68;80.56;100279.25;5016559;28;19913;-82
2022/08/30 04:53:58;;;;;;;;;;;;;;;22.28;78.70;100277.13;5016302;28;19917;-82
2022/08/30 04:56:24;;;;;;;;;;;;;;;22.79;75.60;100280.31;5016252;28;19940;-81
2022/08/30 04:58:51;;;;;;;;;;;;;;;23.32;73.80;100286.63;5016082;28;19917;-81
2022/08/30 05:01:19;;;;;;;;;;;;;;;23.79;71.36;100286.94;5017005;28;20283;-82
2022/08/30 05:03:44;;;;;;;;;;;;;;;24.20;69.27;100288.13;5037809;28;19943;-81
2022/08/30 05:06:10;;;;;;;;;;;;;;;24.71;67.63;100287.31;5019922;28;19963;-82
2022/08/30 05:08:35;;;;;;;;;;;;;;;25.24;64.99;100296.09;5004162;28;19966;-81
2022/08/30 05:11:02;;;;;;;;;;;;;;;25.83;62.77;100297.19;5020276;28;20314;-81
2022/08/30 05:13:28;;;;;;;;;;;;;;;26.34;61.01;100296.84;5020223;28;19913;-81
2022/08/30 05:15:53;;;;;;;;;;;;;;;26.92;58.91;100296.09;5020805;28;20268;-81
2022/08/30 05:18:19;;;;;;;;;;;;;;;27.14;57.43;100296.78;5020627;28;20259;-82
2022/08/30 05:20:44;;;;;;;;;;;;;;;27.51;55.82;100293.13;5037548;28;20368;-81
2022/08/30 05:23:10;;;;;;;;;;;;;;;27.42;56.18;100308.22;5019937;28;19920;-81
2022/08/30 05:25:37;;;;;;;;;;;;;;;27.85;55.47;100312.00;5019760;28;20330;-81
2022/08/30 05:28:03;;;;;;;;;;;;;;;28.23;52.92;100310.63;5037741;28;19913;-81
2022/08/30 05:30:31;;;;;;;;;;;;;;;28.48;51.42;100310.25;5019916;28;20252;-81
2022/08/30 05:32:56;;;;;;;;;;;;;;;29.16;50.47;100310.50;5019683;28;20350;-81
2022/08/30 05:35:22;;;;;;;;;;;;;;;29.45;47.95;100315.53;5019891;28;19959;-82
2022/08/30 05:37:47;;;;;;;;;;;;;;;29.53;46.01;100315.97;5019443;28;19913;-82
2022/08/30 05:40:16;;;;;;;;;;;;;;;29.54;45.11;100319.63;5037415;28;19975;-82
2022/08/30 05:42:41;;;;;;;;;;;;;;;29.23;46.59;100323.66;5015791;28;20474;-83
2022/08/30 05:45:07;;;;;;;;;;;;;;;29.71;45.21;100329.34;5025594;28;19914;-85
2022/08/30 05:47:32;;;;;;;;;;;;;;;29.84;44.58;100332.75;5036155;28;19909;-83
2022/08/30 05:49:58;;;;;;;;;;;;;;;30.25;43.96;100330.09;5023833;28;20112;-84
2022/08/30 05:52:23;;;;;;;;;;;;;;;30.35;44.18;100336.50;5024332;28;19912;-81
2022/08/30 05:54:53;;;;;;;;;;;;;;;30.01;44.41;100330.97;5037484;28;19924;-81
2022/08/30 05:57:18;;;;;;;;;;;;;;;29.15;47.37;100331.84;5019202;28;19916;-81
2022/08/30 05:59:44;;;;;;;;;;;;;;;29.18;46.76;100330.06;5011346;28;19914;-81
2022/08/30 06:02:09;;;;;;;;;;;;;;;29.10;47.73;100335.38;4999577;28;19914;-82
2022/08/30 06:04:35;;;;;;;;;;;;;;;29.35;48.44;100331.22;4999456;28;19913;-81
2022/08/30 06:07:01;;;;;;;;;;;;;;;29.04;48.67;100328.75;5017118;28;19920;-82
2022/08/30 06:09:26;;;;;;;;;;;;;;;29.55;47.55;100329.81;4999603;28;19913;-82
2022/08/30 06:11:52;;;;;;;;;;;;;;;29.49;48.47;100341.13;4999652;28;20344;-81
2022/08/30 06:14:17;;;;;;;;;;;;;;;29.59;48.92;100334.06;4998696;28;20013;-81
2022/08/30 06:16:45;;;;;;;;;;;;;;;29.24;47.37;100336.72;4999259;28;20364;-81
2022/08/30 06:19:11;;;;;;;;;;;;;;;29.50;46.27;100332.03;5018974;28;19952;-83
2022/08/30 06:21:38;;;;;;;;;;;;;;;29.48;46.85;100333.81;5019071;28;20381;-82
2022/08/30 06:24:04;;;;;;;;;;;;;;;29.91;47.49;100334.41;5019676;28;19917;-82
2022/08/30 06:26:35;;;;;;;;;;;;;;;30.52;43.00;100346.19;5017817;28;20191;-82
2022/08/30 06:29:01;;;;;;;;;;;;;;;30.61;42.90;100348.94;5036487;28;19913;-82
2022/08/30 06:31:26;;;;;;;;;;;;;;;31.13;40.83;100346.34;5018095;28;19919;-82
2022/08/30 06:33:51;;;;;;;;;;;;;;;31.92;40.47;100339.50;5018518;28;19914;-81
2022/08/30 06:36:20;;;;;;;;;;;;;;;32.40;38.43;100343.88;5035918;28;20283;-82
2022/08/30 06:38:46;;;;;;;;;;;;;;;31.93;39.64;100334.53;5018245;28;20000;-82
2022/08/30 06:41:13;;;;;;;;;;;;;;;32.41;39.11;100340.47;5018797;28;19979;-82
2022/08/30 06:43:38;;;;;;;;;;;;;;;32.81;37.99;100350.19;5017985;28;20012;-83
2022/08/30 06:46:05;;;;;;;;;;;;;;;32.71;38.41;100355.38;5036525;28;19951;-81
2022/08/30 06:48:30;;;;;;;;;;;;;;;33.04;38.18;100351.94;5018093;28;19913;-83
2022/08/30 06:50:56;;;;;;;;;;;;;;;32.78;38.27;100354.09;5018015;28;19921;-81
2022/08/30 06:53:28;;;;;;;;;;;;;;;32.80;38.78;100355.16;5017919;28;19913;-81
2022/08/30 06:56:10;;;;;;;;;;;;;;;33.05;38.62;100359.28;5018401;28;19920;-82
2022/08/30 06:58:36;;;;;;;;;;;;;;;32.53;39.03;100364.38;5018683;28;19921;-83
2022/08/30 07:01:04;;;;;;;;;;;;;;;32.46;38.44;100359.09;5035611;28;19924;-82
2022/08/30 07:03:32;;;;;;;;;;;;;;;32.74;39.59;100356.44;5018520;28;19944;-82
2022/08/30 07:05:57;;;;;;;;;;;;;;;32.58;40.80;100358.66;5018263;28;19944;-81
2022/08/30 07:08:24;;;;;;;;;;;;;;;32.77;40.04;100361.97;5018427;28;19913;-81
2022/08/30 07:10:53;;;;;;;;;;;;;;;32.76;39.61;100366.16;5035757;28;19921;-83
2022/08/30 07:13:19;;;;;;;;;;;;;;;31.96;40.97;100368.84;5017562;28;20382;-81
2022/08/30 07:15:45;;;;;;;;;;;;;;;32.23;41.77;100372.50;5017287;28;20004;-80
2022/08/30 07:20:55;;;;;;;;;;;;;;;33.81;38.81;100378.75;5035867;28;19975;-81
2022/08/30 07:23:21;;;;;;;;;;;;;;;34.35;38.28;100381.50;5017393;28;20355;-79
2022/08/30 07:25:46;;;;;;;;;;;;;;;34.54;38.34;100375.22;5017422;28;19913;-80
2022/08/30 07:28:12;;;;;;;;;;;;;;;34.98;37.04;100385.19;5018327;28;20029;-81
2022/08/30 07:30:37;;;;;;;;;;;;;;;34.17;37.69;100387.78;5017405;28;20315;-79
2022/08/30 07:33:03;;;;;;;;;;;;;;;33.57;39.15;100375.53;5017652;28;19919;-80
2022/08/30 07:35:30;;;;;;;;;;;;;;;32.83;40.57;100388.72;5017593;28;19917;-81
2022/08/30 07:37:55;;;;;;;;;;;;;;;33.08;40.36;100378.44;5018179;28;20008;-80
2022/08/30 07:40:21;;;;;;;;;;;;;;;33.65;39.60;100381.59;5035009;28;20395;-78
2022/08/30 07:42:46;;;;;;;;;;;;;;;34.07;38.71;100383.56;5017443;28;20371;-80
2022/08/30 07:45:11;;;;;;;;;;;;;;;34.53;38.11;100385.22;5034187;28;19936;-78
2022/08/30 07:47:37;;;;;;;;;;;;;;;34.92;36.98;100390.94;5017151;28;20327;-79
2022/08/30 07:50:04;;;;;;;;;;;;;;;34.79;37.14;100393.63;5034748;28;19971;-80
2022/08/30 07:52:29;;;;;;;;;;;;;;;34.68;37.59;100385.75;5035130;28;19917;-77
2022/08/30 07:54:57;;;;;;;;;;;;;;;34.77;37.11;100388.34;5034910;28;19919;-76
2022/08/30 07:57:23;;;;;;;;;;;;;;;34.64;37.09;100393.88;5017699;28;20003;-80
2022/08/30 07:59:48;;;;;;;;;;;;;;;34.98;36.35;100396.75;5033634;28;20259;-79
2022/08/30 08:02:13;;;;;;;;;;;;;;;35.75;35.97;100406.53;5017061;28;19967;-79
2022/08/30 08:04:39;;;;;;;;;;;;;;;35.85;35.23;100399.09;5017195;28;20298;-78
2022/08/30 08:07:04;;;;;;;;;;;;;;;35.37;35.97;100402.41;5016645;28;20249;-78
2022/08/30 08:09:30;;;;;;;;;;;;;;;34.66;37.33;100394.13;5017143;28;20340;-78
2022/08/30 08:11:55;;;;;;;;;;;;;;;34.69;36.76;100398.88;5016580;28;20423;-79
2022/08/30 08:14:22;;;;;;;;;;;;;;;34.21;37.93;100399.09;5016505;28;19920;-78
2022/08/30 08:16:48;;;;;;;;;;;;;;;33.17;40.36;100399.69;5016266;28;19977;-79
2022/08/30 08:19:13;;;;;;;;;;;;;;;33.22;41.20;100391.06;5016509;28;19916;-78
2022/08/30 08:21:38;;;;;;;;;;;;;;;32.59;41.87;100400.56;5017001;28;19917;-79
2022/08/30 08:24:04;;;;;;;;;;;;;;;32.59;42.33;100403.44;5016856;28;20055;-79
2022/08/30 08:26:29;;;;;;;;;;;;;;;33.26;42.17;100396.59;5000378;28;20367;-77
2022/08/30 08:28:55;;;;;;;;;;;;;;;34.00;39.23;100402.19;5016533;28;19943;-78
2022/08/30 08:31:21;;;;;;;;;;;;;;;33.87;39.53;100396.88;5016530;28;20002;-77
2022/08/30 08:33:47;;;;;;;;;;;;;;;33.95;39.21;100397.19;5016162;28;19913;-77
2022/08/30 08:36:12;;;;;;;;;;;;;;;34.10;39.11;100400.63;5015724;28;19963;-78
2022/08/30 08:38:38;;;;;;;;;;;;;;;33.56;39.58;100400.72;5017062;28;19920;-79
2022/08/30 08:41:22;;;;;;;;;;;;;;;34.01;39.87;100398.00;5032421;28;20413;-78
2022/08/30 08:43:47;;;;;;;;;;;;;;;33.32;41.84;100400.31;5016795;28;20256;-80
2022/08/30 08:46:24;;;;;;;;;;;;;;;33.93;40.18;100396.09;5016682;28;19925;-79
2022/08/30 08:48:52;;;;;;;;;;;;;;;35.08;36.89;100395.16;5017072;28;20315;-78
2022/08/30 08:54:05;;;;;;;;;;;;;;;35.14;37.49;100401.72;5034304;28;19920;-80
2022/08/30 08:56:31;;;;;;;;;;;;;;;34.27;38.98;100403.56;5016453;28;19919;-78
2022/08/30 08:58:56;;;;;;;;;;;;;;;34.13;39.43;100399.59;5016407;28;19913;-77
2022/08/30 09:01:26;;;;;;;;;;;;;;;32.56;42.83;100386.41;5015932;28;20303;-79
2022/08/30 09:03:52;;;;;;;;;;;;;;;33.31;41.73;100387.97;5016100;28;19913;-78
2022/08/30 09:06:20;;;;;;;;;;;;;;;32.88;42.19;100392.16;5016130;28;20015;-78
2022/08/30 09:08:46;;;;;;;;;;;;;;;33.28;41.74;100399.75;5016140;28;19956;-77
2022/08/30 09:11:16;;;;;;;;;;;;;;;33.74;40.67;100396.56;5016109;28;19945;-79
2022/08/30 09:13:41;;;;;;;;;;;;;;;32.58;43.06;100401.09;5016727;28;20004;-79
2022/08/30 09:16:07;;;;;;;;;;;;;;;32.60;43.09;100386.97;5016033;28;19948;-78
2022/08/30 09:18:43;;;;;;;;;;;;;;;33.12;42.65;100395.47;5034655;28;19914;-79
2022/08/30 09:21:10;;;;;;;;;;;;;;;33.88;41.12;100389.03;5015925;28;20012;-78
2022/08/30 09:23:35;;;;;;;;;;;;;;;33.67;40.89;100397.09;5015873;28;20029;-77
2022/08/30 09:26:02;;;;;;;;;;;;;;;34.15;40.53;100384.66;5016316;28;20347;-77
2022/08/30 09:28:29;;;;;;;;;;;;;;;34.74;38.43;100388.63;5015996;28;20347;-79
2022/08/30 09:31:03;;;;;;;;;;;;;;;35.15;38.02;100388.81;5016771;28;20288;-79
2022/08/30 09:33:29;;;;;;;;;;;;;;;35.54;37.13;100382.94;5034288;28;19963;-78
2022/08/30 09:35:55;;;;;;;;;;;;;;;35.79;36.59;100383.84;5016172;28;20260;-80
2022/08/30 09:38:22;;;;;;;;;;;;;;;35.60;35.95;100377.91;5015838;28;19913;-77
2022/08/30 09:40:49;;;;;;;;;;;;;;;36.51;35.73;100378.94;5016372;28;19920;-79
2022/08/30 09:43:26;;;;;;;;;;;;;;;36.80;34.77;100364.97;5015773;28;19917;-78
2022/08/30 09:46:01;;;;;;;;;;;;;;;37.10;33.77;100370.75;5033775;28;20339;-79
2022/08/30 09:48:34;;;;;;;;;;;;;;;36.89;34.32;100365.41;5018939;28;20015;-79
2022/08/30 09:51:05;;;;;;;;;;;;;;;36.94;34.69;100364.59;5037144;28;19923;-77
2022/08/30 09:53:35;;;;;;;;;;;;;;;36.55;35.16;100355.47;5019203;28;19920;-78
2022/08/30 09:56:00;;;;;;;;;;;;;;;35.39;37.13;100356.41;5037252;28;19923;-76
2022/08/30 09:58:25;;;;;;;;;;;;;;;35.07;38.24;100353.09;5019547;28;19913;-79
2022/08/30 10:01:09;;;;;;;;;;;;;;;34.12;39.82;100348.94;5036741;28;20355;-77
2022/08/30 10:03:50;;;;;;;;;;;;;;;34.72;38.04;100345.78;5018902;28;19928;-80
2022/08/30 10:06:35;;;;;;;;;;;;;;;34.55;38.56;100348.69;5019882;28;19913;-78
2022/08/30 10:09:13;;;;;;;;;;;;;;;34.21;39.33;100341.34;5019491;28;19917;-77
2022/08/30 10:12:05;;;;;;;;;;;;;;;34.00;39.36;100341.59;5037009;28;19913;-77
2022/08/30 10:14:30;;;;;;;;;;;;;;;33.60;39.80;100339.88;5016296;28;20398;-79
2022/08/30 10:17:04;;;;;;;;;;;;;;;33.61;40.21;100335.69;5018866;28;19913;-78
2022/08/30 10:19:48;;;;;;;;;;;;;;;33.79;40.28;100335.22;5036677;28;19917;-78
2022/08/30 10:22:18;;;;;;;;;;;;;;;33.53;40.82;100329.63;5019271;28;19971;-79
2022/08/30 10:24:45;;;;;;;;;;;;;;;33.33;40.26;100326.91;5018720;28;19913;-77
2022/08/30 10:27:20;;;;;;;;;;;;;;;33.66;38.65;100323.38;5019495;28;19920;-79
2022/08/30 10:29:48;;;;;;;;;;;;;;;34.20;38.27;100322.41;5019324;28;19920;-78
2022/08/30 10:32:17;;;;;;;;;;;;;;;34.89;36.93;100323.44;5019483;28;19921;-78
2022/08/30 10:34:50;;;;;;;;;;;;;;;34.74;36.09;100327.94;5019100;28;19979;-78
2022/08/30 10:37:18;;;;;;;;;;;;;;;34.10;37.66;100319.03;5018423;28;19957;-78
2022/08/30 10:39:49;;;;;;;;;;;;;;;33.89;37.38;100316.34;5018793;28;19917;-79
2022/08/30 10:42:17;;;;;;;;;;;;;;;33.73;38.43;100313.44;5018365;28;19963;-78
2022/08/30 10:44:45;;;;;;;;;;;;;;;34.45;36.85;100309.84;5018284;28;19917;-78
2022/08/30 10:47:20;;;;;;;;;;;;;;;33.63;37.95;100304.22;5018249;28;19943;-78
2022/08/30 10:49:46;;;;;;;;;;;;;;;33.17;38.61;100307.44;5018226;28;19913;-78
2022/08/30 10:52:22;;;;;;;;;;;;;;;33.84;37.36;100305.59;5036841;28;20304;-79
2022/08/30 10:54:48;;;;;;;;;;;;;;;34.56;36.20;100309.03;5018477;28;20260;-79
2022/08/30 10:57:14;;;;;;;;;;;;;;;34.62;36.70;100306.94;5036439;28;20375;-78
2022/08/30 10:59:44;;;;;;;;;;;;;;;34.28;36.76;100301.16;5016867;28;19913;-77
2022/08/30 11:02:09;;;;;;;;;;;;;;;33.98;37.41;100294.34;5035970;28;19917;-78
2022/08/30 11:04:44;;;;;;;;;;;;;;;34.31;36.84;100305.91;5017975;28;20241;-77
2022/08/30 11:07:28;;;;;;;;;;;;;;;33.40;37.46;100293.88;5035710;28;19981;-78
2022/08/30 11:10:11;;;;;;;;;;;;;;;33.71;37.39;100293.75;5035277;28;19959;-78
2022/08/30 11:12:37;;;;;;;;;;;;;;;33.00;38.56;100292.97;5017686;28;19913;-79
2022/08/30 11:15:14;;;;;;;;;;;;;;;32.27;40.02;100296.09;5036144;28;19920;-79
2022/08/30 11:17:53;;;;;;;;;;;;;;;31.46;41.67;100287.72;5018004;28;19917;-79
2022/08/30 11:20:28;;;;;;;;;;;;;;;31.61;41.80;100285.53;5017980;28;19921;-80
2022/08/30 11:23:12;;;;;;;;;;;;;;;31.88;41.35;100283.47;5018439;28;19913;-78
2022/08/30 11:26:03;;;;;;;;;;;;;;;32.02;41.00;100279.69;5017551;28;19917;-78
2022/08/30 11:28:35;;;;;;;;;;;;;;;32.48;40.26;100279.53;5015342;28;19963;-77
2022/08/30 11:31:03;;;;;;;;;;;;;;;32.54;39.72;100283.22;5034965;28;19940;-78
2022/08/30 11:33:39;;;;;;;;;;;;;;;33.04;38.61;100273.34;5018269;28;20352;-78
2022/08/30 11:36:04;;;;;;;;;;;;;;;33.24;38.67;100276.03;5035477;28;19921;-78
2022/08/30 11:38:30;;;;;;;;;;;;;;;33.87;38.07;100278.53;5017295;28;19913;-78
2022/08/30 11:40:56;;;;;;;;;;;;;;;34.36;36.87;100278.34;5017862;28;19913;-79
2022/08/30 11:43:34;;;;;;;;;;;;;;;34.81;36.10;100275.38;5016935;28;19949;-78
2022/08/30 11:46:12;;;;;;;;;;;;;;;33.95;38.16;100272.31;5017801;28;20008;-78
2022/08/30 11:48:40;;;;;;;;;;;;;;;34.32;36.48;100274.91;5035166;28;19920;-79
2022/08/30 11:51:12;;;;;;;;;;;;;;;34.56;37.75;100271.50;5017356;28;19919;-79
2022/08/30 11:54:01;;;;;;;;;;;;;;;34.64;38.29;100269.66;5017670;28;19913;-78
2022/08/30 11:56:49;;;;;;;;;;;;;;;33.90;40.11;100259.41;4998629;28;19913;-79
2022/08/30 11:59:18;;;;;;;;;;;;;;;33.63;41.04;100258.06;4998201;28;19913;-78
2022/08/30 12:01:43;;;;;;;;;;;;;;;32.89;42.50;100255.44;5016410;28;19918;-79
2022/08/30 12:04:24;;;;;;;;;;;;;;;32.97;43.07;100245.00;5017522;28;19963;-79
2022/08/30 12:07:02;;;;;;;;;;;;;;;33.26;42.34;100249.56;5017190;28;19923;-78
2022/08/30 12:09:28;;;;;;;;;;;;;;;33.34;42.85;100241.97;5017825;28;19963;-77
2022/08/30 12:11:57;;;;;;;;;;;;;;;33.31;42.89;100243.81;5016860;28;20012;-77
2022/08/30 12:14:34;;;;;;;;;;;;;;;32.91;44.16;100232.66;5016825;28;19913;-77
2022/08/30 12:19:46;;;;;;;;;;;;;;;33.33;43.52;100241.19;5034509;28;20379;-78
2022/08/30 12:22:15;;;;;;;;;;;;;;;33.46;43.31;100237.06;5034378;28;19920;-79
2022/08/30 12:24:42;;;;;;;;;;;;;;;34.02;41.65;100237.13;5017211;28;19967;-79
2022/08/30 12:27:27;;;;;;;;;;;;;;;34.59;41.06;100232.88;5034107;28;19917;-78
2022/08/30 12:29:54;;;;;;;;;;;;;;;34.72;40.61;100230.19;5016487;28;19919;-78
2022/08/30 12:32:21;;;;;;;;;;;;;;;34.32;41.25;100226.63;5016531;28;19992;-79
2022/08/30 12:34:46;;;;;;;;;;;;;;;33.71;42.72;100212.97;5033531;28;19917;-77
2022/08/30 12:37:22;;;;;;;;;;;;;;;33.31;43.82;100208.44;5016412;28;19920;-78
2022/08/30 12:39:49;;;;;;;;;;;;;;;33.57;43.42;100200.38;5017325;28;19913;-79
2022/08/30 12:42:17;;;;;;;;;;;;;;;33.29;43.70;100208.16;5017230;28;19917;-78
2022/08/30 12:44:43;;;;;;;;;;;;;;;32.98;44.14;100203.38;5034765;28;19913;-78
2022/08/30 12:47:11;;;;;;;;;;;;;;;32.84;43.89;100200.13;5016096;28;19920;-77